This is the latest recevied weather packets stored in our database for station/object SQ6XL-13. If no packets are shown the sender has not sent any weather packets the latest 10 day(s).
| Time | Temp. | Humidity | Pressure | Rain* | Wind** | Luminosity | Snow |
|---|---|---|---|---|---|---|---|
| 1787859430 | 16.67° C | 72% | 1020.4 hPa | 0 mm | - | - | - |
| 1787858860 | 16.67° C | 72% | 1020.3 hPa | 0 mm | - | - | - |
| 1787858270 | 16.67° C | 72% | 1020.2 hPa | 0 mm | - | - | - |
| 1787857705 | 16.67° C | 74% | 1020.1 hPa | 0 mm | - | - | - |
| 1787857149 | 16.11° C | 76% | 1020.1 hPa | 0 mm | - | - | - |
| 1787856555 | 16.11° C | 75% | 1020.3 hPa | 0 mm | - | - | - |
| 1787855970 | 16.67° C | 73% | 1020.5 hPa | 0 mm | - | - | - |
| 1787855461 | 17.22° C | 70% | 1020.7 hPa | 0 mm | - | - | - |
| 1787854965 | 17.78° C | 68% | 1020.6 hPa | 0 mm | - | - | - |
| 1787854420 | 18.33° C | 65% | 1020.5 hPa | 0 mm | - | - | - |
| 1787853905 | 18.89° C | 65% | 1020.4 hPa | 0 mm | - | - | - |
| 1787853350 | 18.89° C | 64% | 1020.3 hPa | 0 mm | - | - | - |
| 1787852750 | 19.44° C | 63% | 1020.3 hPa | 0 mm | - | - | - |
| 1787852160 | 20.56° C | 60% | 1020.3 hPa | 0 mm | - | - | - |
| 1787851620 | 20.56° C | 59% | 1020.3 hPa | 0 mm | - | - | - |
| 1787851125 | 21.11° C | 57% | 1020.2 hPa | 0 mm | - | - | - |
| 1787850530 | 21.67° C | 56% | 1020.1 hPa | 0 mm | - | - | - |
| 1787849975 | 22.22° C | 55% | 1020.1 hPa | 0 mm | - | - | - |
| 1787849435 | 22.22° C | 55% | 1020 hPa | 0 mm | - | - | - |
| 1787848910 | 22.78° C | 54% | 1020.3 hPa | 0 mm | - | - | - |
| 1787848315 | 22.78° C | 54% | 1020.3 hPa | 0 mm | - | - | - |
| 1787847715 | 22.78° C | 54% | 1020.4 hPa | 0 mm | - | - | - |
| 1787847115 | 22.78° C | 53% | 1020.2 hPa | 0 mm | - | - | - |
| 1787846549 | 22.78° C | 54% | 1020.4 hPa | 0 mm | - | - | - |
| 1787845985 | 23.33° C | 53% | 1020.4 hPa | 0 mm | - | - | - |
* Rain latest hour (hover to see other rain measurements)
** Current wind speed in m/s (hover to see current wind gust speed)